createdAt,value
2023-03-21T00:00:59.564Z,10.40
2023-03-21T00:03:26.942Z,11.35
2023-03-21T00:05:54.411Z,11.32
2023-03-21T00:08:22.259Z,10.60
2023-03-21T00:11:02.608Z,11.18
2023-03-21T00:13:32.627Z,10.52
2023-03-21T00:16:15.907Z,10.25
2023-03-21T00:18:52.551Z,10.00
2023-03-21T00:24:08.096Z,8.68
2023-03-21T00:26:35.739Z,8.65
2023-03-21T00:29:02.840Z,8.35
2023-03-21T00:31:30.213Z,9.00
2023-03-21T00:33:57.555Z,9.07
2023-03-21T00:36:27.749Z,9.35
2023-03-21T00:38:55.263Z,9.77
2023-03-21T00:41:39.253Z,10.38
2023-03-21T00:44:09.125Z,10.93
2023-03-21T00:46:45.531Z,10.20
2023-03-21T00:49:14.261Z,11.05
2023-03-21T00:51:43.518Z,10.73
2023-03-21T00:54:12.166Z,11.45
2023-03-21T00:56:39.519Z,10.55
2023-03-21T00:59:06.666Z,11.75
2023-03-21T01:01:34.560Z,12.07
2023-03-21T01:04:10.721Z,11.95
2023-03-21T01:06:41.220Z,11.82
2023-03-21T01:09:12.359Z,12.48
2023-03-21T01:11:39.523Z,12.63
2023-03-21T01:14:21.420Z,12.77
2023-03-21T01:16:50.470Z,13.60
2023-03-21T01:19:25.451Z,13.93
2023-03-21T01:21:55.203Z,14.20
2023-03-21T01:24:22.473Z,14.45
2023-03-21T01:26:49.572Z,15.32
2023-03-21T01:29:16.706Z,15.85
2023-03-21T01:31:43.886Z,16.15
2023-03-21T01:34:11.181Z,15.65
2023-03-21T01:36:38.420Z,16.45
2023-03-21T01:39:06.705Z,16.15
2023-03-21T01:41:42.908Z,15.23
2023-03-21T01:44:20.400Z,15.10
2023-03-21T01:47:11.666Z,15.70
2023-03-21T01:49:41.656Z,14.68
2023-03-21T01:52:15.185Z,15.30
2023-03-21T01:54:47.629Z,14.65
2023-03-21T01:57:19.874Z,15.10
2023-03-21T01:59:50.266Z,15.07
2023-03-21T02:02:20.768Z,14.30
2023-03-21T02:04:51.107Z,14.40
2023-03-21T02:07:19.898Z,13.73
2023-03-21T02:09:48.019Z,14.88
2023-03-21T02:12:16.296Z,14.15
2023-03-21T02:14:43.930Z,13.73
2023-03-21T02:17:36.918Z,14.40
2023-03-21T02:20:11.602Z,15.55
2023-03-21T02:22:53.454Z,15.15
2023-03-21T02:25:29.700Z,15.00
2023-03-21T02:28:01.277Z,14.23
2023-03-21T02:30:50.750Z,15.20
2023-03-21T02:33:18.641Z,15.07
2023-03-21T02:36:00.561Z,14.23
2023-03-21T02:38:38.201Z,14.35
2023-03-21T02:41:13.161Z,14.90
2023-03-21T02:44:00.256Z,13.40
2023-03-21T02:46:43.940Z,13.50
2023-03-21T02:49:27.862Z,13.10
2023-03-21T02:51:58.175Z,12.23
2023-03-21T02:54:41.831Z,12.25
2023-03-21T02:57:12.966Z,11.63
2023-03-21T02:59:51.787Z,11.52
2023-03-21T03:02:23.323Z,11.05
2023-03-21T03:04:50.420Z,10.85
2023-03-21T03:07:32.822Z,9.90
2023-03-21T03:10:18.392Z,10.38
2023-03-21T03:12:57.775Z,10.15
2023-03-21T03:15:34.476Z,9.70
2023-03-21T03:18:20.733Z,9.75
2023-03-21T03:20:51.065Z,9.55
2023-03-21T03:23:38.469Z,9.35
2023-03-21T03:26:09.216Z,9.95
2023-03-21T03:28:39.210Z,9.32
2023-03-21T03:31:10.059Z,9.60
2023-03-21T03:33:39.261Z,10.95
2023-03-21T03:36:10.865Z,10.77
2023-03-21T03:38:39.104Z,11.07
2023-03-21T03:41:11.621Z,11.48
2023-03-21T03:43:44.064Z,12.00
2023-03-21T03:46:15.267Z,12.35
2023-03-21T03:48:49.614Z,12.80
2023-03-21T03:51:21.710Z,13.10
2023-03-21T03:54:09.069Z,13.65
2023-03-21T03:56:36.573Z,13.07
2023-03-21T03:59:05.392Z,13.18
2023-03-21T04:01:32.496Z,13.70
2023-03-21T04:04:12.208Z,13.68
2023-03-21T04:06:40.108Z,13.30
2023-03-21T04:09:19.112Z,12.95
2023-03-21T04:11:47.682Z,12.82
2023-03-21T04:14:14.930Z,13.38
2023-03-21T04:16:42.185Z,13.63
2023-03-21T04:19:09.404Z,14.35
2023-03-21T04:21:36.649Z,13.13
2023-03-21T04:24:03.967Z,12.77
2023-03-21T04:26:33.336Z,13.30
2023-03-21T04:29:00.898Z,14.35
2023-03-21T04:31:28.595Z,13.18
2023-03-21T04:33:56.006Z,13.82
2023-03-21T04:36:28.666Z,13.57
2023-03-21T04:39:01.461Z,12.43
2023-03-21T04:41:29.297Z,14.30
2023-03-21T04:43:56.561Z,12.38
2023-03-21T04:46:24.347Z,12.32
2023-03-21T04:48:51.489Z,11.50
2023-03-21T04:51:18.690Z,13.18
2023-03-21T04:53:49.231Z,12.48
2023-03-21T04:56:16.695Z,11.10
2023-03-21T04:58:43.916Z,11.52
2023-03-21T05:01:14.480Z,11.17
2023-03-21T05:03:41.730Z,10.43
2023-03-21T05:06:09.257Z,11.50
2023-03-21T05:08:37.396Z,10.35
2023-03-21T05:11:05.128Z,10.15
2023-03-21T05:13:32.290Z,10.15
2023-03-21T05:15:59.529Z,10.15
2023-03-21T05:18:26.966Z,10.30
2023-03-21T05:20:55.208Z,9.55
2023-03-21T05:23:22.993Z,10.93
2023-03-21T05:25:50.461Z,9.63
2023-03-21T05:28:18.216Z,9.75
2023-03-21T05:30:46.325Z,10.18
2023-03-21T05:33:13.705Z,9.80
2023-03-21T05:35:41.141Z,9.07
2023-03-21T05:38:08.295Z,8.80
2023-03-21T05:40:35.517Z,8.88
2023-03-21T05:43:02.624Z,9.85
2023-03-21T05:45:29.724Z,8.98
2023-03-21T05:47:56.920Z,9.00
2023-03-21T05:50:24.222Z,9.15
2023-03-21T05:52:51.388Z,9.25
2023-03-21T05:55:18.523Z,7.90
2023-03-21T05:57:45.666Z,8.10
2023-03-21T06:00:13.640Z,8.48
2023-03-21T06:02:42.014Z,9.40
2023-03-21T06:05:09.384Z,8.38
2023-03-21T06:07:37.092Z,8.52
2023-03-21T06:10:07.690Z,8.90
2023-03-21T06:12:34.853Z,8.25
2023-03-21T06:15:02.017Z,8.48
2023-03-21T06:17:29.195Z,8.38
2023-03-21T06:19:56.413Z,8.77
2023-03-21T06:22:23.576Z,8.48
2023-03-21T06:24:50.974Z,7.90
2023-03-21T06:27:18.157Z,8.10
2023-03-21T06:29:46.318Z,7.93
2023-03-21T06:32:14.123Z,7.82
2023-03-21T06:34:41.337Z,8.38
2023-03-21T06:37:08.444Z,7.88
2023-03-21T06:39:35.803Z,7.25
2023-03-21T06:42:03.003Z,8.68
2023-03-21T06:44:30.256Z,7.32
2023-03-21T06:46:57.467Z,6.75
2023-03-21T06:49:24.673Z,7.38
2023-03-21T06:51:51.769Z,7.18
2023-03-21T06:54:19.057Z,7.63
2023-03-21T06:56:46.500Z,7.10
2023-03-21T06:59:13.736Z,6.95
2023-03-21T07:01:40.944Z,7.25
2023-03-21T07:04:08.119Z,7.13
2023-03-21T07:06:36.048Z,6.80
2023-03-21T07:09:03.484Z,6.75
2023-03-21T07:11:30.566Z,6.47
2023-03-21T07:13:57.670Z,6.88
2023-03-21T07:16:25.351Z,6.70
2023-03-21T07:18:52.821Z,7.13
2023-03-21T07:21:20.100Z,6.63
2023-03-21T07:23:47.333Z,6.97
2023-03-21T07:26:16.109Z,7.15
2023-03-21T07:28:43.327Z,6.63
2023-03-21T07:31:14.243Z,7.28
2023-03-21T07:33:41.428Z,7.43
2023-03-21T07:36:12.485Z,7.85
2023-03-21T07:38:41.034Z,7.85
2023-03-21T07:41:08.565Z,7.28
2023-03-21T07:43:37.204Z,7.10
2023-03-21T07:46:06.450Z,6.95
2023-03-21T07:48:33.747Z,6.95
2023-03-21T07:51:02.203Z,6.85
2023-03-21T07:53:29.335Z,6.73
2023-03-21T07:55:56.666Z,7.78
2023-03-21T07:58:28.359Z,6.55
2023-03-21T08:00:58.264Z,7.47
2023-03-21T08:03:29.152Z,6.55
2023-03-21T08:05:56.413Z,6.90
2023-03-21T08:08:23.592Z,6.85
2023-03-21T08:10:50.786Z,6.60
2023-03-21T08:13:17.990Z,6.50
2023-03-21T08:15:45.217Z,6.90
2023-03-21T08:18:12.336Z,7.20
2023-03-21T08:20:39.612Z,6.35
2023-03-21T08:23:06.808Z,6.45
2023-03-21T08:25:33.933Z,6.45
2023-03-21T08:28:01.082Z,7.00
2023-03-21T08:30:29.251Z,6.77
2023-03-21T08:33:00.721Z,5.93
2023-03-21T08:35:28.560Z,5.25
2023-03-21T08:37:55.687Z,6.28
2023-03-21T08:40:22.901Z,5.47
2023-03-21T08:42:50.266Z,4.93
2023-03-21T08:45:18.485Z,4.68
2023-03-21T08:47:46.166Z,4.95
2023-03-21T08:50:15.602Z,5.30
2023-03-21T08:52:42.805Z,6.28
2023-03-21T08:55:10.541Z,4.73
2023-03-21T08:57:37.701Z,4.60
2023-03-21T09:00:12.939Z,4.32
2023-03-21T09:02:40.414Z,4.35
2023-03-21T09:05:08.006Z,4.28
2023-03-21T09:07:36.453Z,4.13
2023-03-21T09:10:19.887Z,4.53
2023-03-21T09:12:48.277Z,4.97
2023-03-21T09:15:15.839Z,4.53
2023-03-21T09:17:43.809Z,4.53
2023-03-21T09:20:18.787Z,5.10
2023-03-21T09:22:47.602Z,4.88
2023-03-21T09:25:16.156Z,4.93
2023-03-21T09:27:45.682Z,4.82
2023-03-21T09:30:14.037Z,4.20
2023-03-21T09:32:41.927Z,4.40
2023-03-21T09:35:10.364Z,5.28
2023-03-21T09:37:38.342Z,5.22
2023-03-21T09:40:08.479Z,5.22
2023-03-21T09:42:49.013Z,5.72
2023-03-21T09:45:20.764Z,5.40
2023-03-21T09:47:53.424Z,4.82
2023-03-21T09:50:27.729Z,5.28
2023-03-21T09:52:58.192Z,5.47
2023-03-21T09:55:31.024Z,5.50
2023-03-21T09:58:16.727Z,5.33
2023-03-21T10:00:47.439Z,5.38
2023-03-21T10:03:26.282Z,5.40
2023-03-21T10:05:58.777Z,5.20
2023-03-21T10:08:28.833Z,5.40
2023-03-21T10:10:57.354Z,5.67
2023-03-21T10:13:27.109Z,5.80
2023-03-21T10:15:58.077Z,4.85
2023-03-21T10:18:27.557Z,4.75
2023-03-21T10:20:54.781Z,5.32
2023-03-21T10:23:23.632Z,5.50
2023-03-21T10:25:53.864Z,5.45
2023-03-21T10:28:22.088Z,5.20
2023-03-21T10:30:54.162Z,5.20
2023-03-21T10:33:24.192Z,4.70
2023-03-21T10:35:53.970Z,5.10
2023-03-21T10:38:23.677Z,5.13
2023-03-21T10:40:50.877Z,5.30
2023-03-21T10:43:27.143Z,5.28
2023-03-21T10:45:55.874Z,4.65
2023-03-21T10:48:23.755Z,4.60
2023-03-21T10:50:53.242Z,5.20
2023-03-21T10:53:28.800Z,4.85
2023-03-21T10:55:58.145Z,5.00
2023-03-21T10:58:27.678Z,5.10
2023-03-21T11:00:58.666Z,4.63
2023-03-21T11:03:29.601Z,5.03
2023-03-21T11:05:57.782Z,5.18
2023-03-21T11:08:25.008Z,4.93
2023-03-21T11:10:55.372Z,5.25
2023-03-21T11:13:28.128Z,4.60
2023-03-21T11:15:58.790Z,5.00
2023-03-21T11:18:27.439Z,4.72
2023-03-21T11:20:59.080Z,4.70
2023-03-21T11:23:27.723Z,5.22
2023-03-21T11:25:55.716Z,4.23
2023-03-21T11:28:24.145Z,4.70
2023-03-21T11:30:59.008Z,4.72
2023-03-21T11:33:27.799Z,5.13
2023-03-21T11:36:02.438Z,4.80
2023-03-21T11:38:32.026Z,4.70
2023-03-21T11:41:01.248Z,4.55
2023-03-21T11:43:29.828Z,5.03
2023-03-21T11:46:15.657Z,4.30
2023-03-21T11:48:42.852Z,4.65
2023-03-21T11:51:25.379Z,4.80
2023-03-21T11:54:02.625Z,5.25
2023-03-21T11:56:47.666Z,5.07
2023-03-21T11:59:23.890Z,4.60
2023-03-21T12:01:57.352Z,5.18
2023-03-21T12:04:40.298Z,4.97
2023-03-21T12:07:19.727Z,4.82
2023-03-21T12:09:49.977Z,4.60
2023-03-21T12:12:36.514Z,5.25
2023-03-21T12:15:18.706Z,7.30
2023-03-21T12:18:04.529Z,5.57
2023-03-21T12:20:50.537Z,5.30
2023-03-21T12:23:36.390Z,5.60
2023-03-21T12:26:14.773Z,5.25
2023-03-21T12:29:00.833Z,6.00
2023-03-21T12:31:31.680Z,6.23
2023-03-21T12:34:06.760Z,6.00
2023-03-21T12:36:42.065Z,6.38
2023-03-21T12:39:12.174Z,6.18
2023-03-21T12:41:45.622Z,6.20
2023-03-21T12:44:17.084Z,6.20
2023-03-21T12:46:46.666Z,5.93
2023-03-21T12:49:13.802Z,7.22
2023-03-21T12:51:43.127Z,6.97
2023-03-21T12:54:29.159Z,6.45
2023-03-21T12:57:10.250Z,6.77
2023-03-21T12:59:40.389Z,6.05
2023-03-21T13:02:16.849Z,5.97
2023-03-21T13:04:50.734Z,6.10
2023-03-21T13:07:20.001Z,5.60
2023-03-21T13:09:47.479Z,6.23
2023-03-21T13:12:17.610Z,5.88
2023-03-21T13:14:53.147Z,6.15
2023-03-21T13:17:25.821Z,5.80
2023-03-21T13:20:07.362Z,6.28
2023-03-21T13:22:34.665Z,6.50
2023-03-21T13:25:05.145Z,6.47
2023-03-21T13:27:32.229Z,5.68
2023-03-21T13:30:17.851Z,5.55
2023-03-21T13:32:46.112Z,5.32
2023-03-21T13:35:27.816Z,5.27
2023-03-21T13:38:00.418Z,5.30
2023-03-21T13:40:39.252Z,5.43
2023-03-21T13:43:08.628Z,5.80
2023-03-21T13:45:47.276Z,5.85
2023-03-21T13:48:46.520Z,5.97
2023-03-21T13:51:20.737Z,5.75
2023-03-21T13:54:00.164Z,5.75
2023-03-21T13:56:27.881Z,6.18
2023-03-21T13:58:58.242Z,6.70
2023-03-21T14:01:31.460Z,6.23
2023-03-21T14:04:06.972Z,6.35
2023-03-21T14:06:42.860Z,6.15
2023-03-21T14:09:12.179Z,6.28
2023-03-21T14:11:44.388Z,6.82
2023-03-21T14:14:13.816Z,6.50
2023-03-21T14:16:41.761Z,6.43
2023-03-21T14:19:11.907Z,6.95
2023-03-21T14:21:46.769Z,6.40
2023-03-21T14:24:14.569Z,6.70
2023-03-21T14:26:44.091Z,6.60
2023-03-21T14:29:25.579Z,6.35
2023-03-21T14:31:54.065Z,6.30
2023-03-21T14:34:22.913Z,6.30
2023-03-21T14:36:57.800Z,6.13
2023-03-21T14:39:30.408Z,6.43
2023-03-21T14:42:01.822Z,6.65
2023-03-21T14:44:56.749Z,6.10
2023-03-21T14:47:25.613Z,6.18
2023-03-21T14:49:53.016Z,6.28
2023-03-21T14:52:28.267Z,6.40
2023-03-21T14:54:56.212Z,6.07
2023-03-21T14:57:33.474Z,6.30
2023-03-21T15:00:06.506Z,6.22
2023-03-21T15:02:35.711Z,6.57
2023-03-21T15:05:12.562Z,6.33
2023-03-21T15:07:39.754Z,6.60
2023-03-21T15:10:17.273Z,6.65
2023-03-21T15:12:55.151Z,7.40
2023-03-21T15:15:26.043Z,6.80
2023-03-21T15:17:55.967Z,6.43
2023-03-21T15:20:25.366Z,6.80
2023-03-21T15:22:54.355Z,6.30
2023-03-21T15:25:24.457Z,6.70
2023-03-21T15:27:51.691Z,6.90
2023-03-21T15:30:22.126Z,6.07
2023-03-21T15:32:49.417Z,6.53
2023-03-21T15:35:20.279Z,6.53
2023-03-21T15:37:53.856Z,6.68
2023-03-21T15:40:22.816Z,6.53
2023-03-21T15:42:50.004Z,6.23
2023-03-21T15:45:27.839Z,6.25
2023-03-21T15:47:59.779Z,6.55
2023-03-21T15:50:27.209Z,6.85
2023-03-21T15:52:54.958Z,6.45
2023-03-21T15:55:26.193Z,6.10
2023-03-21T15:57:54.614Z,7.57
2023-03-21T16:00:24.586Z,6.60
2023-03-21T16:02:57.514Z,5.90
2023-03-21T16:05:24.743Z,6.22
2023-03-21T16:07:52.002Z,6.63
2023-03-21T16:10:31.763Z,6.00
2023-03-21T16:12:59.398Z,6.20
2023-03-21T16:15:27.124Z,6.00
2023-03-21T16:17:58.161Z,5.93
2023-03-21T16:20:26.677Z,6.33
2023-03-21T16:22:54.082Z,7.28
2023-03-21T16:25:21.847Z,7.72
2023-03-21T16:27:49.335Z,6.28
2023-03-21T16:30:18.097Z,5.20
2023-03-21T16:32:45.266Z,5.70
2023-03-21T16:35:12.573Z,5.35
2023-03-21T16:37:40.104Z,5.15
2023-03-21T16:40:17.214Z,5.25
2023-03-21T16:42:45.405Z,4.28
2023-03-21T16:45:12.930Z,4.13
2023-03-21T16:47:40.272Z,4.50
2023-03-21T16:50:33.523Z,4.05
2023-03-21T16:53:01.176Z,4.25
2023-03-21T16:55:29.116Z,4.05
2023-03-21T16:57:57.534Z,4.43
2023-03-21T17:00:27.205Z,4.70
2023-03-21T17:02:55.291Z,5.07
2023-03-21T17:05:23.113Z,5.05
2023-03-21T17:07:50.220Z,6.03
2023-03-21T17:10:19.385Z,5.60
2023-03-21T17:12:46.556Z,6.60
2023-03-21T17:15:14.546Z,5.97
2023-03-21T17:17:41.821Z,6.60
2023-03-21T17:20:22.317Z,6.10
2023-03-21T17:22:49.703Z,5.60
2023-03-21T17:25:18.069Z,6.13
2023-03-21T17:27:45.242Z,6.10
2023-03-21T17:30:31.991Z,6.35
2023-03-21T17:32:59.272Z,5.60
2023-03-21T17:35:26.764Z,5.03
2023-03-21T17:37:58.107Z,5.28
2023-03-21T17:40:27.104Z,4.80
2023-03-21T17:42:54.507Z,5.00
2023-03-21T17:45:22.920Z,4.88
2023-03-21T17:47:50.691Z,5.10
2023-03-21T17:50:23.058Z,4.93
2023-03-21T17:52:50.865Z,4.70
2023-03-21T17:55:19.633Z,5.22
2023-03-21T17:57:47.457Z,5.32
2023-03-21T18:00:20.901Z,5.00
2023-03-21T18:02:48.246Z,5.15
2023-03-21T18:05:15.696Z,4.90
2023-03-21T18:08:08.728Z,4.80
2023-03-21T18:10:30.555Z,5.05
2023-03-21T18:12:58.926Z,4.60
2023-03-21T18:15:30.203Z,4.80
2023-03-21T18:17:57.840Z,4.57
2023-03-21T18:20:48.131Z,4.47
2023-03-21T18:23:14.510Z,4.57
2023-03-21T18:25:41.806Z,4.70
2023-03-21T18:28:11.998Z,4.38
2023-03-21T18:33:27.748Z,5.25
2023-03-21T18:35:59.397Z,5.47
2023-03-21T18:38:27.733Z,5.43
2023-03-21T18:40:55.278Z,5.45
2023-03-21T18:46:09.671Z,6.13
2023-03-21T18:48:36.948Z,6.10
2023-03-21T18:51:04.428Z,6.27
2023-03-21T18:53:31.629Z,6.03
2023-03-21T18:55:58.764Z,6.43
2023-03-21T18:58:26.238Z,6.15
2023-03-21T19:00:54.040Z,6.00
2023-03-21T19:03:35.118Z,6.10
2023-03-21T19:06:03.992Z,5.80
2023-03-21T19:08:31.680Z,6.25
2023-03-21T19:11:03.754Z,5.80
2023-03-21T19:13:33.552Z,6.10
2023-03-21T19:16:02.729Z,5.80
2023-03-21T19:18:50.356Z,6.18
2023-03-21T19:21:18.684Z,6.32
2023-03-21T19:24:20.994Z,6.15
2023-03-21T19:26:33.018Z,6.28
2023-03-21T19:29:00.211Z,6.33
2023-03-21T19:31:27.462Z,7.07
2023-03-21T19:33:54.785Z,7.05
2023-03-21T19:36:23.385Z,7.38
2023-03-21T19:38:50.971Z,7.40
2023-03-21T19:41:18.434Z,7.73
2023-03-21T19:43:54.190Z,7.97
2023-03-21T19:46:24.772Z,7.57
2023-03-21T19:48:56.223Z,7.22
2023-03-21T19:51:30.193Z,7.60
2023-03-21T19:54:03.290Z,7.50
2023-03-21T19:56:31.635Z,7.13
2023-03-21T19:58:59.187Z,7.63
2023-03-21T20:01:26.630Z,7.45
2023-03-21T20:03:53.823Z,7.15
2023-03-21T20:06:24.392Z,7.28
2023-03-21T20:11:41.978Z,7.13
2023-03-21T20:14:12.140Z,7.65
2023-03-21T20:16:43.310Z,7.45
2023-03-21T20:19:12.606Z,7.70
2023-03-21T20:21:48.563Z,8.32
2023-03-21T20:24:17.646Z,8.52
2023-03-21T20:26:45.789Z,8.20
2023-03-21T20:30:07.543Z,8.10
2023-03-21T20:32:00.858Z,8.30
2023-03-21T20:34:28.435Z,8.30
2023-03-21T20:36:56.492Z,8.70
2023-03-21T20:39:24.677Z,6.65
2023-03-21T20:41:54.688Z,7.82
2023-03-21T20:44:51.870Z,6.95
2023-03-21T20:47:08.992Z,6.60
2023-03-21T20:49:36.513Z,6.90
2023-03-21T20:54:54.136Z,5.88
2023-03-21T20:57:21.330Z,5.15
2023-03-21T20:59:48.482Z,5.20
2023-03-21T21:02:15.696Z,4.97
2023-03-21T21:04:57.344Z,5.22
2023-03-21T21:07:30.064Z,4.78
2023-03-21T21:09:57.739Z,4.40
2023-03-21T21:12:27.627Z,4.10
2023-03-21T21:14:55.527Z,4.50
2023-03-21T21:17:40.363Z,4.63
2023-03-21T21:20:17.128Z,4.47
2023-03-21T21:22:46.101Z,4.68
2023-03-21T21:25:24.055Z,5.28
2023-03-21T21:27:51.520Z,5.20
2023-03-21T21:30:18.679Z,5.43
2023-03-21T21:32:45.806Z,5.57
2023-03-21T21:35:13.053Z,5.80
2023-03-21T21:37:42.015Z,5.82
2023-03-21T21:40:13.598Z,6.78
2023-03-21T21:42:41.680Z,6.53
2023-03-21T21:45:09.474Z,5.68
2023-03-21T21:47:36.600Z,6.18
2023-03-21T21:50:04.318Z,6.18
2023-03-21T21:52:31.615Z,6.18
2023-03-21T21:54:58.779Z,5.38
2023-03-21T21:57:25.927Z,5.38
2023-03-21T21:59:55.857Z,4.90
2023-03-21T22:02:23.849Z,4.70
2023-03-21T22:04:51.777Z,4.82
2023-03-21T22:07:19.379Z,4.65
2023-03-21T22:09:47.010Z,4.20
2023-03-21T22:12:14.110Z,3.83
2023-03-21T22:14:41.196Z,3.40
2023-03-21T22:17:08.504Z,3.60
2023-03-21T22:19:35.601Z,3.35
2023-03-21T22:22:02.781Z,2.72
2023-03-21T22:24:29.997Z,2.35
2023-03-21T22:26:59.921Z,2.40
2023-03-21T22:29:27.581Z,2.38
2023-03-21T22:31:55.578Z,2.65
2023-03-21T22:34:23.085Z,2.33
2023-03-21T22:36:50.728Z,2.13
2023-03-21T22:39:18.573Z,2.00
2023-03-21T22:41:46.039Z,2.42
2023-03-21T22:44:13.550Z,1.70
2023-03-21T22:46:40.669Z,1.85
2023-03-21T22:49:07.804Z,2.15
2023-03-21T22:51:34.993Z,2.05
2023-03-21T22:54:02.274Z,2.17
2023-03-21T22:56:29.497Z,1.65
2023-03-21T22:58:57.191Z,1.83
2023-03-21T23:01:24.432Z,1.83
2023-03-21T23:03:51.630Z,1.80
2023-03-21T23:06:19.620Z,1.40
2023-03-21T23:08:47.321Z,1.45
2023-03-21T23:11:14.590Z,1.52
2023-03-21T23:13:41.682Z,1.45
2023-03-21T23:16:09.264Z,1.52
2023-03-21T23:18:37.106Z,1.40
2023-03-21T23:21:06.218Z,1.45
2023-03-21T23:23:36.736Z,1.52
2023-03-21T23:26:03.891Z,1.20
2023-03-21T23:28:31.014Z,1.30
2023-03-21T23:30:58.186Z,0.93
2023-03-21T23:33:25.390Z,1.15
2023-03-21T23:35:52.663Z,1.30
2023-03-21T23:38:19.757Z,1.50
2023-03-21T23:40:46.893Z,1.50
2023-03-21T23:43:13.964Z,1.45
2023-03-21T23:45:41.517Z,1.45
2023-03-21T23:48:08.767Z,1.60
2023-03-21T23:50:36.103Z,1.63
2023-03-21T23:53:03.207Z,1.90
2023-03-21T23:55:30.341Z,1.38
2023-03-21T23:57:58.976Z,1.63
